Time;durP1;ratioP1;P1;durP2;ratioP2;P2;SDS_P1;SDS_P2;PMS_P1;PMS_P2;Temp;Humidity;BMP_temperature;BMP_pressure;BME280_temperature;BME280_humidity;BME280_pressure;Samples;Min_cycle;Max_cycle;Signal;HPM_P1;HPM_P2
2021/06/05 00:01:52;;;;;;;9.68;3.40;;;29.20;88.20;;;;;;5124507;28;20020;-54
2021/06/05 00:04:22;;;;;;;8.52;3.72;;;29.20;88.00;;;;;;5124716;28;20046;-48
2021/06/05 00:06:49;;;;;;;13.48;5.32;;;29.20;87.60;;;;;;5124178;28;20260;-54
2021/06/05 00:09:17;;;;;;;11.70;4.72;;;29.20;87.60;;;;;;5123316;28;20065;-54
2021/06/05 00:11:44;;;;;;;9.13;4.65;;;29.20;87.20;;;;;;5124808;28;20082;-49
2021/06/05 00:14:12;;;;;;;8.57;4.15;;;29.10;87.30;;;;;;5125015;28;20031;-49
2021/06/05 00:16:45;;;;;;;12.05;5.00;;;29.20;87.10;;;;;;5124190;28;20049;-52
2021/06/05 00:19:14;;;;;;;10.00;5.07;;;29.10;87.00;;;;;;5125006;28;20046;-50
2021/06/05 00:21:42;;;;;;;13.55;5.63;;;29.10;87.20;;;;;;5124594;28;20023;-54
2021/06/05 00:24:09;;;;;;;17.33;6.70;;;29.10;87.40;;;;;;5124359;28;20022;-50
2021/06/05 00:26:36;;;;;;;12.75;5.55;;;29.10;87.30;;;;;;5123997;28;20019;-58
2021/06/05 00:29:04;;;;;;;9.25;5.07;;;29.10;87.20;;;;;;5125070;28;20079;-50
2021/06/05 00:31:31;;;;;;;8.88;5.13;;;29.10;87.00;;;;;;5126329;28;20015;-54
2021/06/05 00:33:58;;;;;;;8.38;4.93;;;29.10;87.10;;;;;;5126783;28;20035;-50
2021/06/05 00:36:25;;;;;;;7.32;4.35;;;29.10;87.60;;;;;;5127855;28;20026;-50
2021/06/05 00:38:54;;;;;;;10.68;4.57;;;29.00;87.50;;;;;;5127724;28;20024;-51
2021/06/05 00:41:23;;;;;;;9.18;4.00;;;29.00;87.90;;;;;;5127934;28;20019;-55
2021/06/05 00:43:51;;;;;;;9.25;4.18;;;29.00;87.60;;;;;;5126362;28;20197;-51
2021/06/05 00:46:20;;;;;;;10.95;4.68;;;29.00;87.90;;;;;;5127577;28;20028;-53
2021/06/05 00:48:47;;;;;;;12.52;4.80;;;29.00;88.10;;;;;;5127976;28;20410;-53
2021/06/05 00:51:16;;;;;;;9.25;4.70;;;28.90;88.70;;;;;;5127564;28;20024;-53
2021/06/05 00:53:42;;;;;;;10.73;4.32;;;28.90;88.60;;;;;;5127246;28;20036;-52
2021/06/05 00:56:12;;;;;;;13.55;4.57;;;28.90;88.60;;;;;;5127264;28;20327;-48
2021/06/05 00:58:39;;;;;;;7.38;3.60;;;28.90;89.00;;;;;;5127267;28;20023;-50
2021/06/05 01:01:12;;;;;;;10.65;4.30;;;28.80;89.10;;;;;;5127549;28;20027;-51
2021/06/05 01:03:39;;;;;;;16.17;5.03;;;28.80;89.40;;;;;;5127296;28;20095;-49
2021/06/05 01:06:16;;;;;;;18.60;7.35;;;28.80;89.50;;;;;;5126972;28;20019;-52
2021/06/05 01:09:12;;;;;;;12.82;7.45;;;28.80;89.80;;;;;;5109459;28;20028;-49
2021/06/05 01:11:39;;;;;;;16.70;7.85;;;28.80;90.00;;;;;;5125691;28;20047;-49
2021/06/05 01:14:13;;;;;;;15.60;6.38;;;28.70;90.00;;;;;;5127449;28;20020;-47
2021/06/05 01:16:43;;;;;;;13.52;7.35;;;28.70;90.00;;;;;;5126748;28;20024;-53
2021/06/05 01:19:36;;;;;;;13.10;7.57;;;28.70;90.00;;;;;;5127513;28;20058;-49
2021/06/05 01:22:11;;;;;;;11.15;6.65;;;28.70;90.00;;;;;;5126973;28;20023;-54
2021/06/05 01:25:06;;;;;;;9.73;6.45;;;28.70;90.10;;;;;;5126983;28;20043;-49
2021/06/05 01:27:38;;;;;;;12.20;5.50;;;28.70;90.10;;;;;;5126957;28;20057;-49
2021/06/05 01:30:44;;;;;;;9.30;4.65;;;28.70;90.10;;;;;;5127432;28;20039;-49
2021/06/05 01:33:13;;;;;;;12.70;4.55;;;28.70;90.10;;;;;;5113998;28;20055;-48
2021/06/05 01:35:41;;;;;;;10.13;3.60;;;28.60;90.20;;;;;;5126646;28;20042;-48
2021/06/05 01:38:10;;;;;;;8.00;3.42;;;28.60;90.30;;;;;;5127195;28;20023;-49
2021/06/05 01:40:37;;;;;;;10.63;3.58;;;28.60;90.20;;;;;;5126754;28;20043;-50
2021/06/05 01:43:06;;;;;;;10.23;3.35;;;28.60;90.20;;;;;;5125696;28;20019;-52
2021/06/05 01:45:36;;;;;;;9.23;3.42;;;28.50;90.20;;;;;;5126541;28;20200;-51
2021/06/05 01:48:03;;;;;;;9.25;3.40;;;28.50;90.20;;;;;;5126542;28;20024;-49
2021/06/05 01:50:33;;;;;;;6.80;3.00;;;28.50;90.40;;;;;;5108480;28;20026;-47
2021/06/05 01:53:11;;;;;;;9.75;3.92;;;28.50;90.40;;;;;;5126301;28;20211;-48
2021/06/05 01:55:46;;;;;;;10.25;3.80;;;28.50;90.60;;;;;;5125516;28;20015;-50
2021/06/05 01:58:15;;;;;;;15.00;3.80;;;28.50;90.60;;;;;;5126432;28;20027;-49
2021/06/05 02:00:49;;;;;;;8.40;3.10;;;28.50;90.50;;;;;;5124914;28;20320;-49
2021/06/05 02:03:17;;;;;;;8.13;3.35;;;28.40;90.60;;;;;;5126221;28;20023;-49
2021/06/05 02:05:45;;;;;;;7.28;3.35;;;28.40;90.60;;;;;;5126104;28;20019;-52
2021/06/05 02:08:20;;;;;;;9.20;3.55;;;28.40;90.70;;;;;;5126058;28;20020;-51
2021/06/05 02:10:48;;;;;;;8.68;3.67;;;28.40;90.70;;;;;;5125725;28;20023;-50
2021/06/05 02:13:26;;;;;;;21.80;7.00;;;28.40;90.70;;;;;;5126333;28;20019;-49
2021/06/05 02:15:57;;;;;;;8.75;4.20;;;28.40;90.70;;;;;;5126322;28;20087;-55
2021/06/05 02:18:30;;;;;;;11.98;3.88;;;28.40;90.80;;;;;;5126351;28;20030;-49
2021/06/05 02:21:01;;;;;;;9.30;2.95;;;28.40;90.90;;;;;;5107792;28;20072;-52
2021/06/05 02:23:52;;;;;;;8.02;3.30;;;28.40;90.90;;;;;;5125790;28;20028;-47
2021/06/05 02:26:22;;;;;;;12.25;3.42;;;28.40;90.80;;;;;;5115469;28;20038;-47
2021/06/05 02:28:57;;;;;;;5.32;2.80;;;28.40;90.90;;;;;;5125901;28;20024;-49
2021/06/05 02:31:25;;;;;;;8.77;3.28;;;28.30;90.90;;;;;;5107307;28;20201;-47
2021/06/05 02:33:52;;;;;;;11.27;3.55;;;28.30;90.80;;;;;;5125957;28;20027;-52
2021/06/05 02:36:20;;;;;;;9.10;3.03;;;28.30;90.80;;;;;;5125241;28;20466;-47
2021/06/05 02:38:49;;;;;;;6.53;2.60;;;28.30;90.70;;;;;;5125938;28;20253;-53
2021/06/05 02:41:18;;;;;;;10.43;2.65;;;28.30;90.70;;;;;;5125171;28;20332;-51
2021/06/05 02:43:54;;;;;;;7.10;2.60;;;28.30;90.70;;;;;;5125293;28;20185;-55
2021/06/05 02:46:35;;;;;;;6.63;2.60;;;28.30;90.90;;;;;;5125339;28;20019;-47
2021/06/05 02:49:18;;;;;;;10.70;2.92;;;28.30;90.90;;;;;;5125270;28;20069;-53
2021/06/05 02:51:48;;;;;;;8.27;2.60;;;28.30;90.90;;;;;;5125495;28;20019;-54
2021/06/05 02:54:15;;;;;;;8.27;2.83;;;28.20;90.90;;;;;;5125254;28;20299;-49
2021/06/05 02:56:42;;;;;;;10.77;2.60;;;28.20;90.90;;;;;;5125131;28;20020;-53
2021/06/05 02:59:09;;;;;;;10.95;2.72;;;28.20;90.90;;;;;;5125737;28;20027;-51
2021/06/05 03:01:36;;;;;;;10.35;2.67;;;28.20;91.00;;;;;;5125346;28;20023;-53
2021/06/05 03:04:03;;;;;;;6.13;2.53;;;28.20;90.90;;;;;;5125589;28;20032;-50
2021/06/05 03:06:31;;;;;;;8.80;3.10;;;28.20;90.80;;;;;;5125240;28;20019;-48
2021/06/05 03:08:58;;;;;;;;;;;28.20;90.80;;;;;;5124814;28;20119;-51
2021/06/05 03:11:25;;;;;;;;;;;28.30;90.90;;;;;;5125088;28;19911;-54
2021/06/05 03:13:51;;;;;;;;;;;28.20;90.90;;;;;;5125636;28;19977;-49
2021/06/05 03:16:18;;;;;;;;;;;28.20;91.00;;;;;;5125856;28;20154;-53
2021/06/05 03:18:45;;;;;;;;;;;28.20;91.10;;;;;;5125645;28;19939;-49
2021/06/05 03:21:15;;;;;;;;;;;28.30;91.10;;;;;;5125501;28;19900;-51
2021/06/05 03:23:42;;;;;;;;;;;28.20;91.10;;;;;;5125726;28;19918;-51
2021/06/05 03:26:09;;;;;;;;;;;28.20;91.00;;;;;;5125123;28;19900;-52
2021/06/05 03:28:35;;;;;;;;;;;28.20;91.10;;;;;;5125543;28;19907;-52
2021/06/05 03:31:02;;;;;;;;;;;28.20;91.00;;;;;;5125389;28;20060;-50
2021/06/05 03:33:29;;;;;;;;;;;28.20;91.00;;;;;;5107037;28;19908;-56
2021/06/05 03:35:56;;;;;;;;;;;28.20;91.10;;;;;;5125292;28;19900;-52
2021/06/05 03:38:23;;;;;;;;;;;28.20;91.20;;;;;;5125535;28;19914;-50
2021/06/05 03:40:50;;;;;;;;;;;28.10;91.20;;;;;;5125194;28;19899;-49
2021/06/05 03:43:16;;;;;;;;;;;28.10;91.30;;;;;;5125632;28;19979;-49
2021/06/05 03:45:42;;;;;;;;;;;28.10;91.40;;;;;;5124788;28;19900;-48
2021/06/05 03:48:08;;;;;;;;;;;28.10;91.40;;;;;;5124938;28;19949;-49
2021/06/05 03:50:36;;;;;;;;;;;28.10;91.30;;;;;;5124901;28;19904;-54
2021/06/05 03:53:03;;;;;;;;;;;28.10;91.40;;;;;;5125402;28;19915;-51
2021/06/05 03:55:29;;;;;;;;;;;28.10;91.40;;;;;;5125414;28;19896;-49
2021/06/05 03:58:00;;;;;;;;;;;28.10;91.40;;;;;;5125401;28;19907;-49
2021/06/05 04:00:28;;;;;;;;;;;28.10;91.50;;;;;;5125009;28;19900;-48
2021/06/05 04:02:54;;;;;;;;;;;28.00;91.50;;;;;;5124858;28;19915;-49
2021/06/05 04:05:20;;;;;;;;;;;28.00;91.60;;;;;;5125540;28;19947;-53
2021/06/05 04:07:47;;;;;;;;;;;28.00;91.70;;;;;;5129102;28;19978;-51
2021/06/05 04:10:13;;;;;;;;;;;27.90;91.70;;;;;;5129069;28;20037;-51
2021/06/05 04:12:39;;;;;;;;;;;27.90;91.60;;;;;;5129387;28;19916;-47
2021/06/05 04:15:07;;;;;;;;;;;28.00;91.70;;;;;;5128888;28;19907;-48
2021/06/05 04:17:33;;;;;;;;;;;27.90;91.70;;;;;;5129324;28;19915;-52
2021/06/05 04:19:59;;;;;;;;;;;27.90;91.70;;;;;;5129040;28;20196;-48
2021/06/05 04:22:25;;;;;;;;;;;27.90;91.70;;;;;;5128971;28;19942;-50
2021/06/05 04:24:52;;;;;;;;;;;27.90;91.70;;;;;;5128475;28;20133;-48
2021/06/05 04:27:18;;;;;;;;;;;28.00;91.70;;;;;;5128574;28;19904;-47
2021/06/05 04:29:44;;;;;;;;;;;27.90;91.80;;;;;;5128609;28;19980;-51
2021/06/05 04:32:12;;;;;;;;;;;27.80;91.90;;;;;;5128114;28;19907;-46
2021/06/05 04:34:39;;;;;;;;;;;27.90;91.90;;;;;;5093983;28;19908;-50
2021/06/05 04:37:06;;;;;;;;;;;27.90;91.80;;;;;;5107980;28;19900;-53
2021/06/05 04:39:32;;;;;;;;;;;27.90;91.70;;;;;;5107785;28;19910;-45
2021/06/05 04:41:59;;;;;;;;;;;27.90;91.70;;;;;;5107678;28;19900;-47
2021/06/05 04:44:25;;;;;;;;;;;27.90;91.70;;;;;;5107764;28;19926;-49
2021/06/05 04:46:51;;;;;;;;;;;27.90;91.80;;;;;;5107751;28;19900;-49
2021/06/05 04:49:17;;;;;;;;;;;27.90;91.80;;;;;;5107922;28;19908;-50
2021/06/05 04:51:45;;;;;;;;;;;27.90;91.80;;;;;;5107677;28;19908;-46
2021/06/05 04:54:11;;;;;;;;;;;27.90;91.80;;;;;;5117796;28;19923;-50
2021/06/05 04:56:37;;;;;;;;;;;27.90;91.70;;;;;;5127868;28;19904;-47
2021/06/05 04:59:04;;;;;;;;;;;27.90;91.70;;;;;;5128325;28;19908;-46
2021/06/05 05:01:30;;;;;;;;;;;27.90;91.70;;;;;;5127786;28;20084;-48
2021/06/05 05:03:57;;;;;;;;;;;27.90;91.70;;;;;;5128011;28;19916;-50
2021/06/05 05:06:23;;;;;;;;;;;27.90;91.60;;;;;;5127826;28;19900;-45
2021/06/05 05:08:49;;;;;;;;;;;27.90;91.60;;;;;;5109771;28;20184;-49
2021/06/05 05:11:16;;;;;;;;;;;27.80;91.60;;;;;;5127713;28;19900;-48
2021/06/05 05:13:42;;;;;;;;;;;27.80;91.50;;;;;;5127967;28;20283;-47
2021/06/05 05:16:08;;;;;;;;;;;27.80;91.40;;;;;;5127558;28;19934;-46
2021/06/05 05:18:35;;;;;;;;;;;27.80;91.40;;;;;;5126750;28;19983;-51
2021/06/05 05:21:02;;;;;;;;;;;27.80;91.40;;;;;;5127221;28;19904;-46
2021/06/05 05:23:29;;;;;;;;;;;27.80;91.40;;;;;;5127461;28;20192;-54
2021/06/05 05:25:57;;;;;;;;;;;27.80;91.40;;;;;;5127424;28;19948;-47
2021/06/05 05:28:23;;;;;;;;;;;27.80;91.50;;;;;;5127416;28;19908;-53
2021/06/05 05:30:51;;;;;;;;;;;27.80;91.50;;;;;;5127152;28;19923;-45
2021/06/05 05:33:18;;;;;;;;;;;27.80;91.70;;;;;;5127403;28;19930;-53
2021/06/05 05:35:44;;;;;;;;;;;27.80;91.60;;;;;;5127067;28;19900;-47
2021/06/05 05:38:11;;;;;;;;;;;27.80;91.70;;;;;;5127491;28;19914;-52
2021/06/05 05:40:38;;;;;;;;;;;27.80;91.70;;;;;;5127025;28;19900;-49
2021/06/05 05:43:04;;;;;;;;;;;27.70;91.80;;;;;;5126802;28;20044;-49
2021/06/05 05:45:30;;;;;;;;;;;27.80;91.80;;;;;;5127006;28;19903;-50
2021/06/05 05:47:57;;;;;;;;;;;27.70;91.80;;;;;;5127016;28;19915;-53
2021/06/05 05:50:24;;;;;;;;;;;27.70;91.80;;;;;;5126731;28;19903;-51
2021/06/05 05:52:51;;;;;;;;;;;27.70;91.80;;;;;;5127113;28;19914;-46
2021/06/05 05:55:17;;;;;;;;;;;27.70;91.90;;;;;;5126770;28;19914;-50
2021/06/05 05:57:43;;;;;;;;;;;27.60;92.00;;;;;;5126587;28;19907;-50
2021/06/05 06:00:12;;;;;;;;;;;27.60;91.90;;;;;;5126728;28;20056;-48
2021/06/05 06:02:39;;;;;;;;;;;27.70;91.90;;;;;;5126826;28;19950;-52
2021/06/05 06:05:06;;;;;;;;;;;27.60;91.90;;;;;;5126396;28;20168;-51
2021/06/05 06:07:32;;;;;;;;;;;27.60;91.90;;;;;;5126518;28;19908;-50
2021/06/05 06:09:59;;;;;;;;;;;27.60;91.90;;;;;;5126561;28;19904;-51
2021/06/05 06:12:25;;;;;;;;;;;27.60;91.90;;;;;;5126420;28;19947;-54
2021/06/05 06:14:51;;;;;;;;;;;27.60;91.90;;;;;;5126542;28;19899;-51
2021/06/05 06:17:17;;;;;;;;;;;27.50;92.00;;;;;;5126341;28;19899;-49
2021/06/05 06:19:43;;;;;;;;;;;27.50;92.00;;;;;;5126220;28;19906;-50
2021/06/05 06:22:09;;;;;;;;;;;27.50;92.00;;;;;;5126446;28;20060;-46
2021/06/05 06:24:36;;;;;;;;;;;27.50;91.90;;;;;;5126323;28;19903;-47
2021/06/05 06:27:02;;;;;;;;;;;27.60;91.90;;;;;;5126007;28;19935;-48
2021/06/05 06:29:33;;;;;;;;;;;27.50;91.90;;;;;;5125708;28;19908;-49
2021/06/05 06:31:59;;;;;;;;;;;27.50;91.90;;;;;;5126036;28;20196;-48
2021/06/05 06:34:27;;;;;;;11.50;2.80;;;27.50;91.90;;;;;;5125783;28;19923;-48
2021/06/05 06:36:59;;;;;;;;;;;27.50;92.00;;;;;;5125982;28;19912;-45
2021/06/05 06:39:25;;;;;;;;;;;27.40;92.00;;;;;;5126115;28;19916;-46
2021/06/05 06:41:51;;;;;;;;;;;27.40;92.00;;;;;;5125766;28;20207;-49
2021/06/05 06:44:17;;;;;;;;;;;27.40;92.00;;;;;;5126380;28;19912;-47
2021/06/05 06:46:45;;;;;;;;;;;27.40;92.10;;;;;;5125917;28;20099;-50
2021/06/05 06:49:12;;;;;;;;;;;27.40;92.20;;;;;;5126185;28;19908;-45
2021/06/05 06:51:39;;;;;;;;;;;27.40;92.20;;;;;;5125883;28;19908;-48
2021/06/05 06:54:06;;;;;;;;;;;27.40;92.20;;;;;;5125915;28;19922;-50
2021/06/05 06:56:33;;;;;;;;;;;27.40;92.10;;;;;;5125900;28;20153;-45
2021/06/05 06:58:59;;;;;;;;;;;27.40;92.10;;;;;;5126131;28;19911;-46
2021/06/05 07:01:26;;;;;;;;;;;27.30;92.10;;;;;;5125759;28;19904;-45
2021/06/05 07:03:52;;;;;;;;;;;27.30;92.20;;;;;;5125960;28;19920;-48
2021/06/05 07:06:21;;;;;;;;;;;27.30;92.10;;;;;;5125887;28;20287;-49
2021/06/05 07:08:48;;;;;;;;;;;27.30;92.10;;;;;;5125931;28;19915;-50
2021/06/05 07:11:18;;;;;;;;;;;27.30;92.10;;;;;;5125550;28;19946;-50
2021/06/05 07:13:45;;;;;;;;;;;27.30;92.10;;;;;;5125949;28;19912;-45
2021/06/05 07:16:11;;;;;;;;;;;27.30;92.10;;;;;;5125454;28;20140;-46
2021/06/05 07:18:38;;;;;;;;;;;27.20;92.00;;;;;;5125707;28;20152;-49
2021/06/05 07:21:05;;;;;;;;;;;27.30;92.10;;;;;;5125538;28;19904;-54
2021/06/05 07:23:33;;;;;;;;;;;27.20;91.90;;;;;;5125721;28;19923;-50
2021/06/05 07:26:01;;;;;;;;;;;27.20;91.90;;;;;;5125230;28;19904;-50
2021/06/05 07:28:35;;;;;;;;;;;27.20;91.90;;;;;;5125722;28;19912;-54
2021/06/05 07:31:02;;;;;;;;;;;27.20;92.10;;;;;;5125339;28;19904;-45
2021/06/05 07:33:28;;;;;;;;;;;27.20;92.10;;;;;;5125525;28;19983;-45
2021/06/05 07:35:56;;;;;;;;;;;27.20;92.10;;;;;;5125420;28;19943;-54
2021/06/05 07:38:22;;;;;;;;;;;27.10;92.00;;;;;;5125660;28;20215;-52
2021/06/05 07:40:49;;;;;;;;;;;27.10;92.00;;;;;;5126666;28;20237;-46
2021/06/05 07:43:17;;;;;;;;;;;27.10;92.10;;;;;;5129522;28;19911;-51
2021/06/05 07:45:44;;;;;;;;;;;27.10;92.00;;;;;;5129513;28;19904;-49
2021/06/05 07:48:11;;;;;;;;;;;27.10;92.00;;;;;;5129442;28;19952;-49
2021/06/05 07:50:37;;;;;;;;;;;27.10;92.00;;;;;;5129370;28;20082;-45
2021/06/05 07:53:03;;;;;;;;;;;27.10;92.00;;;;;;5129269;28;20096;-48
2021/06/05 07:55:30;;;;;;;;;;;27.10;91.90;;;;;;5129190;28;19904;-47
2021/06/05 07:57:56;;;;;;;;;;;27.10;91.90;;;;;;5129332;28;19943;-51
2021/06/05 08:00:24;;;;;;;;;;;27.10;91.90;;;;;;5129236;28;19904;-51
2021/06/05 08:02:50;;;;;;;;;;;27.00;92.00;;;;;;5129171;28;19939;-52
2021/06/05 08:05:17;;;;;;;;;;;27.10;92.00;;;;;;5129089;28;20229;-46
2021/06/05 08:07:43;;;;;;;;;;;27.00;92.00;;;;;;5129097;28;19912;-47
2021/06/05 08:10:11;;;;;;;;;;;27.00;92.00;;;;;;5129035;28;19911;-50
2021/06/05 08:12:37;;;;;;;;;;;27.00;92.10;;;;;;5128970;28;20007;-49
2021/06/05 08:15:05;;;;;;;;;;;27.00;92.10;;;;;;5128787;28;19904;-47
2021/06/05 08:17:32;;;;;;;;;;;27.00;92.20;;;;;;5128808;28;20185;-49
2021/06/05 08:19:58;;;;;;;;;;;27.00;92.20;;;;;;5128675;28;19904;-51
2021/06/05 08:22:26;;;;;;;;;;;27.00;92.20;;;;;;5128808;28;19919;-49
2021/06/05 08:24:53;;;;;;;;;;;27.00;92.20;;;;;;5128556;28;19941;-50
2021/06/05 08:27:19;;;;;;;;;;;27.00;92.30;;;;;;5128491;28;19930;-45
2021/06/05 08:29:46;;;;;;;;;;;27.00;92.30;;;;;;5128587;28;19956;-48
2021/06/05 08:32:12;;;;;;;;;;;27.00;92.40;;;;;;5128574;28;19904;-49
2021/06/05 08:34:38;;;;;;;;;;;27.00;92.20;;;;;;5128360;28;20187;-49
2021/06/05 08:37:04;;;;;;;;;;;27.00;92.10;;;;;;5128564;28;19904;-52
2021/06/05 08:39:31;;;;;;;;;;;27.00;92.10;;;;;;5128480;28;19904;-51
2021/06/05 08:41:59;;;;;;;;;;;27.00;92.10;;;;;;5128385;28;19903;-49
2021/06/05 08:44:25;;;;;;;;;;;27.00;92.20;;;;;;5128217;28;20139;-47
2021/06/05 08:47:00;;;;;;;;;;;27.00;92.30;;;;;;5128204;28;19949;-51
2021/06/05 08:49:29;;;;;;;;;;;27.00;92.20;;;;;;5128242;28;19979;-53
2021/06/05 08:52:05;;;;;;;;;;;27.00;92.20;;;;;;5109831;28;20098;-48
2021/06/05 08:54:35;;;;;;;;;;;27.00;92.20;;;;;;5127803;28;20200;-50
2021/06/05 08:57:07;;;;;;;;;;;27.00;92.20;;;;;;5127942;28;19974;-48
2021/06/05 08:59:34;;;;;;;;;;;27.00;92.30;;;;;;5109933;28;19915;-50
2021/06/05 09:02:01;;;;;;;;;;;27.00;92.20;;;;;;5127763;28;19973;-52
2021/06/05 09:04:28;;;;;;;;;;;27.00;92.20;;;;;;5127910;28;19912;-52
2021/06/05 09:06:57;;;;;;;;;;;27.00;92.30;;;;;;5127912;28;19942;-54
2021/06/05 09:09:25;;;;;;;;;;;27.00;92.40;;;;;;5128135;28;19919;-46
2021/06/05 09:11:52;;;;;;;;;;;27.00;92.40;;;;;;5127881;28;19930;-45
2021/06/05 09:14:18;;;;;;;;;;;26.90;92.50;;;;;;5128148;28;20099;-48
2021/06/05 09:16:48;;;;;;;;;;;26.90;92.50;;;;;;5127599;28;20203;-46
2021/06/05 09:19:17;;;;;;;;;;;27.00;92.50;;;;;;5128028;28;20264;-47
2021/06/05 09:21:50;;;;;;;;;;;27.00;92.50;;;;;;5127552;28;19903;-47
2021/06/05 09:24:17;;;;;;;;;;;27.00;92.40;;;;;;5127742;28;19923;-47
2021/06/05 09:27:01;;;;;;;;;;;27.00;92.40;;;;;;5127225;28;19904;-46
2021/06/05 09:29:27;;;;;;;;;;;27.00;92.40;;;;;;5127358;28;20213;-46
2021/06/05 09:32:01;;;;;;;;;;;27.00;92.40;;;;;;5127585;28;20196;-47
2021/06/05 09:34:33;;;;;;;;;;;26.90;92.40;;;;;;5127324;28;19919;-50
2021/06/05 09:37:01;;;;;;;;;;;26.90;92.40;;;;;;5108725;28;20104;-46
2021/06/05 09:39:36;;;;;;;;;;;26.90;92.50;;;;;;5127541;28;20131;-46
2021/06/05 09:42:03;;;;;;;;;;;26.90;92.50;;;;;;5126812;28;19904;-46
2021/06/05 09:44:37;;;;;;;;;;;26.90;92.50;;;;;;5126821;28;19915;-46
2021/06/05 09:47:18;;;;;;;;;;;26.90;92.60;;;;;;5126414;28;19910;-47
2021/06/05 09:49:47;;;;;;;;;;;26.90;92.80;;;;;;5127012;28;19930;-45
2021/06/05 09:52:21;;;;;;;;;;;26.90;92.60;;;;;;5126667;28;19945;-49
2021/06/05 09:54:49;;;;;;;;;;;26.90;92.70;;;;;;5126664;28;19912;-52
2021/06/05 09:57:30;;;;;;;;;;;26.90;92.70;;;;;;5126953;28;19927;-50
2021/06/05 10:00:14;;;;;;;;;;;26.90;92.50;;;;;;5126628;28;19972;-49
2021/06/05 10:02:52;;;;;;;;;;;26.90;92.40;;;;;;5126376;28;19911;-46
2021/06/05 10:05:23;;;;;;;;;;;26.90;92.30;;;;;;5126105;28;19918;-50
2021/06/05 10:07:52;;;;;;;;;;;26.90;92.30;;;;;;5126388;28;19919;-47
2021/06/05 10:10:37;;;;;;;;;;;26.80;92.30;;;;;;5126240;28;19939;-46
2021/06/05 10:13:06;;;;;;;;;;;26.90;92.40;;;;;;5126397;28;19918;-48
2021/06/05 10:15:35;;;;;;;;;;;26.90;92.70;;;;;;5126505;28;19945;-47
2021/06/05 10:18:08;;;;;;;;;;;26.90;92.40;;;;;;5126790;28;19918;-46
2021/06/05 10:20:46;;;;;;;;;;;26.90;92.30;;;;;;5126498;28;19903;-56
2021/06/05 10:23:17;;;;;;;;;;;26.90;92.30;;;;;;5126432;28;19912;-47
2021/06/05 10:25:47;;;;;;;;;;;26.80;92.30;;;;;;5125908;28;19904;-50
2021/06/05 10:28:22;;;;;;;;;;;26.80;92.30;;;;;;5125973;28;19912;-47
2021/06/05 10:30:48;;;;;;;;;;;26.80;92.30;;;;;;5126298;28;19904;-48
2021/06/05 10:33:17;;;;;;;;;;;26.80;92.20;;;;;;5126191;28;19934;-48
2021/06/05 10:35:44;;;;;;;;;;;26.80;92.30;;;;;;5126002;28;19940;-51
2021/06/05 10:38:20;;;;;;;;;;;26.80;92.30;;;;;;5126299;28;19918;-45
2021/06/05 10:40:47;;;;;;;;;;;26.80;92.30;;;;;;5125429;28;20222;-47
2021/06/05 10:43:15;;;;;;;;;;;26.80;92.30;;;;;;5125936;28;19915;-46
2021/06/05 10:45:44;;;;;;;;;;;26.80;92.30;;;;;;5125640;28;19907;-47
2021/06/05 10:48:25;;;;;;;;;;;26.80;92.20;;;;;;5125677;28;19908;-48
2021/06/05 10:51:11;;;;;;;;;;;26.80;92.30;;;;;;5125591;28;19908;-49
2021/06/05 10:53:56;;;;;;;;;;;26.80;92.30;;;;;;5115040;28;19961;-47
2021/06/05 10:56:38;;;;;;;;;;;26.80;92.40;;;;;;5125628;28;19904;-50
2021/06/05 10:59:24;;;;;;;;;;;26.80;92.50;;;;;;5125816;28;19911;-49
2021/06/05 11:01:51;;;;;;;;;;;26.80;92.50;;;;;;5125424;28;19945;-49
2021/06/05 11:04:32;;;;;;;;;;;26.80;92.50;;;;;;5125874;28;20214;-48
2021/06/05 11:07:21;;;;;;;;;;;26.80;92.50;;;;;;5125534;28;19904;-51
2021/06/05 11:09:51;;;;;;;;;;;26.80;92.60;;;;;;5125187;28;19934;-45
2021/06/05 11:12:17;;;;;;;;;;;26.80;92.50;;;;;;5125168;28;19910;-46
2021/06/05 11:14:45;;;;;;;;;;;26.80;92.50;;;;;;5124808;28;19912;-52
2021/06/05 11:17:11;;;;;;;;;;;26.90;92.60;;;;;;5125186;28;19904;-50
2021/06/05 11:19:48;;;;;;;;;;;26.90;92.50;;;;;;5125096;28;19911;-50
2021/06/05 11:22:18;;;;;;;;;;;26.90;92.60;;;;;;5125001;28;20104;-49
2021/06/05 11:24:46;;;;;;;;;;;26.90;92.50;;;;;;5124961;28;19908;-52
2021/06/05 11:27:31;;;;;;;;;;;26.90;92.30;;;;;;5125392;28;19949;-48
2021/06/05 11:29:59;;;;;;;;;;;26.90;92.30;;;;;;5125166;28;19903;-50
2021/06/05 11:32:43;;;;;;;;;;;26.90;92.20;;;;;;5125144;28;19954;-49
2021/06/05 11:35:12;;;;;;;;;;;26.90;92.10;;;;;;5125366;28;19904;-46
2021/06/05 11:37:47;;;;;;;;;;;26.90;92.10;;;;;;5124823;28;19912;-55
2021/06/05 11:40:33;;;;;;;;;;;26.90;92.10;;;;;;5124894;28;20104;-52
2021/06/05 11:43:00;;;;;;;;;;;26.90;92.10;;;;;;5124830;28;19912;-50
2021/06/05 11:45:26;;;;;;;;;;;26.90;92.20;;;;;;5124743;28;19915;-53
2021/06/05 11:47:52;;;;;;;;;;;26.90;92.30;;;;;;5124686;28;19912;-52
2021/06/05 11:50:24;;;;;;;;;;;26.90;92.20;;;;;;5124822;28;19903;-54
2021/06/05 11:53:13;;;;;;;;;;;26.90;92.20;;;;;;5124778;28;20077;-54
2021/06/05 11:55:41;;;;;;;;;;;27.00;92.10;;;;;;5103914;28;19919;-55
2021/06/05 11:58:07;;;;;;;;;;;26.90;92.10;;;;;;5104589;28;19908;-54
2021/06/05 12:00:56;;;;;;;;;;;26.90;92.20;;;;;;5104596;28;19908;-48
2021/06/05 12:03:25;;;;;;;;;;;27.00;92.20;;;;;;5103525;28;19931;-48
2021/06/05 12:05:51;;;;;;;;;;;27.00;92.20;;;;;;5104394;28;19953;-50
2021/06/05 12:08:21;;;;;;;;;;;27.00;92.10;;;;;;5104073;28;19949;-46
2021/06/05 12:10:47;;;;;;;;;;;27.10;92.00;;;;;;5104485;28;19908;-46
2021/06/05 12:13:19;;;;;;;;;;;27.10;92.20;;;;;;5104339;28;19916;-47
2021/06/05 12:15:45;;;;;;;;;;;27.10;92.10;;;;;;5104422;28;19908;-50
2021/06/05 12:18:26;;;;;;;;;;;27.20;92.10;;;;;;5104186;28;19915;-51
2021/06/05 12:20:58;;;;;;;;;;;27.20;92.00;;;;;;5104211;28;20101;-47
2021/06/05 12:23:30;;;;;;;;;;;27.20;92.00;;;;;;5104327;28;19939;-47
2021/06/05 12:26:01;;;;;;;;;;;27.20;91.90;;;;;;5103801;28;19914;-49
2021/06/05 12:28:32;;;;;;;;;;;27.20;92.00;;;;;;5107950;28;19931;-47
2021/06/05 12:31:16;;;;;;;;;;;27.20;92.10;;;;;;5107894;28;19908;-47
2021/06/05 12:33:43;;;;;;;;;;;27.30;92.00;;;;;;5108014;28;19915;-53
2021/06/05 12:36:20;;;;;;;;;;;27.30;92.00;;;;;;5107865;28;19904;-48
2021/06/05 12:38:50;;;;;;;;;;;27.30;92.00;;;;;;5107962;28;20168;-47
2021/06/05 12:41:27;;;;;;;;;;;27.30;92.10;;;;;;5089430;28;19899;-45
2021/06/05 12:43:53;;;;;;;;;;;27.30;92.10;;;;;;5108001;28;20184;-48
2021/06/05 12:46:23;;;;;;;;;;;27.30;92.20;;;;;;5107668;28;19907;-48
2021/06/05 12:48:51;;;;;;;;;;;27.40;92.10;;;;;;5107787;28;19947;-46
2021/06/05 12:51:20;;;;;;;;;;;27.40;92.00;;;;;;5107567;28;19928;-45
2021/06/05 12:53:56;;;;;;;;;;;27.40;92.00;;;;;;5114273;28;20068;-51
2021/06/05 12:56:30;;;;;;;;;;;27.40;92.00;;;;;;5127691;28;19900;-51
2021/06/05 12:58:58;;;;;;;;;;;27.40;91.90;;;;;;5128237;28;19908;-47
2021/06/05 13:01:33;;;;;;;;;;;27.40;91.80;;;;;;5127773;28;20263;-48
2021/06/05 13:04:00;;;;;;;;;;;27.50;91.70;;;;;;5127791;28;19915;-46
2021/06/05 13:06:46;;;;;;;;;;;27.50;91.50;;;;;;5127604;28;19934;-51
2021/06/05 13:09:21;;;;;;;;;;;27.50;91.40;;;;;;5116428;28;19915;-48
2021/06/05 13:11:52;;;;;;;;;;;27.50;91.40;;;;;;5127514;28;19900;-50
2021/06/05 13:14:28;;;;;;;;;;;27.50;91.40;;;;;;5127764;28;19911;-47
2021/06/05 13:17:20;;;;;;;;;;;27.50;91.40;;;;;;5127152;28;19906;-52
2021/06/05 13:19:46;;;;;;;;;;;27.50;91.40;;;;;;5124482;28;19912;-52
2021/06/05 13:22:15;;;;;;;;;;;27.60;91.40;;;;;;5127286;28;19953;-45
2021/06/05 13:25:00;;;;;;;;;;;27.60;91.40;;;;;;5127076;28;19945;-46
2021/06/05 13:27:27;;;;;;;;;;;27.60;91.40;;;;;;5126942;28;19983;-47
2021/06/05 13:29:53;;;;;;;;;;;27.60;91.40;;;;;;5127116;28;19942;-46
2021/06/05 13:32:25;;;;;;;;;;;27.60;91.70;;;;;;5126815;28;20000;-51
2021/06/05 13:34:51;;;;;;;;;;;27.60;91.40;;;;;;5127078;28;19904;-47
2021/06/05 13:37:23;;;;;;;;;;;27.60;91.30;;;;;;5126903;28;19970;-52
2021/06/05 13:39:57;;;;;;;;;;;27.70;91.30;;;;;;5126252;28;19906;-47
2021/06/05 13:42:26;;;;;;;;;;;27.70;91.30;;;;;;5126801;28;19953;-50
2021/06/05 13:44:52;;;;;;;;;;;27.70;91.30;;;;;;5126758;28;19910;-53
2021/06/05 13:47:18;;;;;;;;;;;27.70;91.20;;;;;;5108374;28;20285;-53
2021/06/05 13:49:44;;;;;;;;;;;27.70;91.30;;;;;;5126752;28;19931;-49
2021/06/05 13:52:10;;;;;;;;;;;27.70;91.30;;;;;;5126512;28;19979;-51
2021/06/05 13:54:37;;;;;;;;;;;27.80;91.30;;;;;;5126163;28;19915;-49
2021/06/05 13:57:03;;;;;;;;;;;27.80;91.20;;;;;;5126395;28;20181;-50
2021/06/05 13:59:29;;;;;;;;;;;27.90;91.20;;;;;;5126209;28;19937;-54
2021/06/05 14:01:55;;;;;;;;;;;27.90;91.20;;;;;;5126461;28;19970;-48
2021/06/05 14:04:22;;;;;;;;;;;27.90;91.10;;;;;;5126679;28;20196;-51
2021/06/05 14:06:48;;;;;;;;;;;27.90;91.00;;;;;;5126577;28;20189;-48
2021/06/05 14:09:14;;;;;;;;;;;28.00;91.00;;;;;;5125907;28;19914;-47